Time;durP1;ratioP1;P1;durP2;ratioP2;P2;SDS_P1;SDS_P2;PMS_P1;PMS_P2;Temp;Humidity;BMP_temperature;BMP_pressure;BME280_temperature;BME280_humidity;BME280_pressure;Samples;Min_cycle;Max_cycle;Signal;HPM_P1;HPM_P2
2023/09/05 00:00:54;;;;;;;8.10;7.30;;;;;23.20;100950.00;;;;2077950;28;20601;-66
2023/09/05 00:01:54;;;;;;;7.73;6.93;;;;;23.20;100955.00;;;;2058840;28;20218;-66
2023/09/05 00:02:55;;;;;;;8.93;7.23;;;;;23.20;100949.00;;;;2065293;28;20994;-66
2023/09/05 00:03:57;;;;;;;9.60;7.37;;;;;23.20;100954.00;;;;2071777;28;20222;-66
2023/09/05 00:04:57;;;;;;;8.35;7.40;;;;;23.20;100960.00;;;;2077546;28;20236;-66
2023/09/05 00:06:00;;;;;;;7.47;6.73;;;;;23.20;100956.00;;;;2066293;28;20221;-67
2023/09/05 00:07:01;;;;;;;8.88;6.68;;;;;23.20;100948.00;;;;2057140;28;20238;-67
2023/09/05 00:08:01;;;;;;;9.10;7.37;;;;;23.20;100940.00;;;;2084611;28;20686;-67
2023/09/05 00:09:01;;;;;;;7.10;6.40;;;;;23.20;100956.00;;;;2084861;28;20248;-67
2023/09/05 00:10:10;;;;;;;7.67;6.80;;;;;23.20;100952.00;;;;2077840;28;20240;-67
2023/09/05 00:11:12;;;;;;;8.50;6.95;;;;;23.20;100949.00;;;;2079199;28;20651;-66
2023/09/05 00:12:12;;;;;;;9.80;6.72;;;;;23.20;100956.00;;;;2072699;28;20240;-66
2023/09/05 00:13:14;;;;;;;8.90;6.73;;;;;23.20;100955.00;;;;2087204;28;20288;-66
2023/09/05 00:14:17;;;;;;;7.55;6.40;;;;;23.20;100950.00;;;;2085481;28;20217;-66
2023/09/05 00:15:17;;;;;;;7.13;6.43;;;;;23.20;100953.00;;;;2086220;28;20228;-66
2023/09/05 00:16:18;;;;;;;8.07;6.63;;;;;23.20;100940.00;;;;2074843;28;20241;-66
2023/09/05 00:17:18;;;;;;;6.93;6.23;;;;;23.20;100939.00;;;;2068720;28;20245;-66
2023/09/05 00:18:18;;;;;;;7.47;6.63;;;;;23.20;100939.00;;;;2093484;28;20216;-66
2023/09/05 00:19:19;;;;;;;6.57;5.90;;;;;23.20;100951.00;;;;2085316;28;20229;-66
2023/09/05 00:20:19;;;;;;;8.10;7.07;;;;;23.20;100947.00;;;;2084187;28;20205;-66
2023/09/05 00:21:19;;;;;;;7.57;6.77;;;;;23.20;100944.00;;;;2082670;28;20216;-66
2023/09/05 00:22:20;;;;;;;7.03;6.33;;;;;23.20;100954.00;;;;2076264;28;20240;-66
2023/09/05 00:23:23;;;;;;;6.70;6.03;;;;;23.20;100939.00;;;;2087073;28;20336;-66
2023/09/05 00:24:39;;;;;;;6.72;5.80;;;;;23.20;100939.00;;;;2088512;28;20636;-66
2023/09/05 00:25:39;;;;;;;7.38;5.90;;;;;23.20;100940.00;;;;2086757;28;20220;-66
2023/09/05 00:26:39;;;;;;;6.07;5.40;;;;;23.20;100942.00;;;;2077418;28;20779;-66
2023/09/05 00:27:40;;;;;;;7.37;5.67;;;;;23.20;100944.00;;;;2092509;28;20710;-66
2023/09/05 00:28:42;;;;;;;7.53;6.10;;;;;23.20;100938.00;;;;2095510;28;20212;-66
2023/09/05 00:29:43;;;;;;;6.85;5.82;;;;;23.20;100941.00;;;;2085225;28;20232;-66
2023/09/05 00:30:43;;;;;;;6.63;5.33;;;;;23.20;100945.00;;;;2087739;28;20219;-66
2023/09/05 00:31:43;;;;;;;5.70;5.20;;;;;23.20;100943.00;;;;2077860;28;20223;-66
2023/09/05 00:32:46;;;;;;;6.20;5.50;;;;;23.20;100938.00;;;;2086226;28;20201;-66
2023/09/05 00:33:47;;;;;;;7.55;6.03;;;;;23.20;100947.00;;;;2087574;28;20584;-66
2023/09/05 00:34:48;;;;;;;7.53;5.97;;;;;23.20;100942.00;;;;2085279;28;20722;-66
2023/09/05 00:35:53;;;;;;;5.77;5.07;;;;;23.20;100939.00;;;;2080876;28;20304;-65
2023/09/05 00:36:53;;;;;;;7.38;5.72;;;;;23.20;100943.00;;;;2075713;28;20216;-65
2023/09/05 00:37:54;;;;;;;6.13;5.53;;;;;23.20;100946.00;;;;2085309;28;20311;-65
2023/09/05 00:38:54;;;;;;;6.90;5.20;;;;;23.20;100942.00;;;;2082487;28;20209;-65
2023/09/05 00:39:55;;;;;;;6.67;5.13;;;;;23.20;100941.00;;;;2084959;28;20212;-65
2023/09/05 00:40:55;;;;;;;6.20;5.60;;;;;23.20;100904.00;;;;2081563;28;20209;-65
2023/09/05 00:41:56;;;;;;;5.90;5.30;;;;;23.20;100930.00;;;;2074913;28;20271;-65
2023/09/05 00:42:58;;;;;;;5.30;4.80;;;;;23.20;100943.00;;;;2087558;28;20216;-65
2023/09/05 00:43:59;;;;;;;6.05;5.38;;;;;23.20;100938.00;;;;2084086;28;20451;-65
2023/09/05 00:44:59;;;;;;;6.03;5.43;;;;;23.20;100941.00;;;;2085042;28;20623;-65
2023/09/05 00:45:59;;;;;;;5.80;5.20;;;;;23.20;100935.00;;;;2086356;28;20240;-65
2023/09/05 00:47:00;;;;;;;5.53;5.00;;;;;23.20;100937.00;;;;2077032;28;20240;-65
2023/09/05 00:48:02;;;;;;;5.90;5.10;;;;;23.20;100935.00;;;;2087499;28;20203;-65
2023/09/05 00:49:02;;;;;;;5.78;5.18;;;;;23.20;100930.00;;;;2075449;28;20563;-65
2023/09/05 00:50:05;;;;;;;5.13;4.63;;;;;23.20;100920.00;;;;2084272;28;20225;-65
2023/09/05 00:51:07;;;;;;;5.28;4.28;;;;;23.20;100933.00;;;;2073910;28;20752;-65
2023/09/05 00:52:08;;;;;;;6.00;4.40;;;;;23.20;100938.00;;;;2070470;28;20221;-65
2023/09/05 00:53:08;;;;;;;5.53;4.83;;;;;23.20;100936.00;;;;2076520;28;20293;-65
2023/09/05 00:54:09;;;;;;;5.03;4.20;;;;;23.20;100920.00;;;;2085771;28;20216;-65
2023/09/05 00:55:10;;;;;;;5.15;4.38;;;;;23.20;100938.00;;;;2082459;28;20300;-65
2023/09/05 00:56:10;;;;;;;8.63;5.03;;;;;23.20;100941.00;;;;2074795;28;20262;-65
2023/09/05 00:57:11;;;;;;;5.17;3.90;;;;;23.20;100880.00;;;;2066092;28;20286;-65
2023/09/05 00:58:12;;;;;;;4.88;4.38;;;;;23.20;100932.00;;;;2082889;28;20693;-65
2023/09/05 00:59:12;;;;;;;5.90;4.70;;;;;23.20;100931.00;;;;2087268;28;20221;-65
2023/09/05 01:00:13;;;;;;;6.20;4.90;;;;;23.20;100934.00;;;;2083161;28;20230;-65
2023/09/05 01:01:14;;;;;;;5.05;4.20;;;;;23.20;100932.00;;;;2084937;28;20578;-65
2023/09/05 01:02:14;;;;;;;5.13;4.30;;;;;23.20;100930.00;;;;2081847;28;20228;-65
2023/09/05 01:03:14;;;;;;;5.00;4.20;;;;;23.20;100938.00;;;;2090977;28;20228;-65
2023/09/05 01:04:15;;;;;;;4.83;4.40;;;;;23.20;100938.00;;;;2086676;28;20243;-65
2023/09/05 01:05:15;;;;;;;5.37;4.87;;;;;23.20;100932.00;;;;2091976;28;20221;-65
2023/09/05 01:06:22;;;;;;;4.70;4.20;;;;;23.20;100935.00;;;;2086106;28;20773;-65
2023/09/05 01:07:29;;;;;;;5.00;4.40;;;;;23.20;100938.00;;;;2066362;28;20237;-65
2023/09/05 01:08:31;;;;;;;5.57;4.68;;;;;23.20;100933.00;;;;2075853;28;20252;-65
2023/09/05 01:09:47;;;;;;;4.47;4.00;;;;;23.20;100930.00;;;;2075442;28;20213;-65
2023/09/05 01:11:00;;;;;;;5.40;4.47;;;;;23.20;100934.00;;;;2066345;28;20242;-65
2023/09/05 01:12:01;;;;;;;5.15;4.65;;;;;23.20;100881.00;;;;2067327;28;20225;-65
2023/09/05 01:13:01;;;;;;;5.90;4.57;;;;;23.20;100932.00;;;;2074028;28;20975;-65
2023/09/05 01:14:01;;;;;;;5.73;3.87;;;;;23.20;100931.00;;;;2075661;28;20218;-65
2023/09/05 01:15:03;;;;;;;4.83;4.33;;;;;23.20;100926.00;;;;2084626;28;20206;-65
2023/09/05 01:16:03;;;;;;;4.40;3.95;;;;;23.20;100934.00;;;;2086457;28;20215;-65
2023/09/05 01:17:05;;;;;;;4.63;4.23;;;;;23.20;100937.00;;;;2080093;28;20220;-65
2023/09/05 01:18:05;;;;;;;5.93;4.10;;;;;23.20;100932.00;;;;2091832;28;20616;-65
2023/09/05 01:19:06;;;;;;;4.07;3.60;;;;;23.20;100935.00;;;;2082854;28;20242;-65
2023/09/05 01:20:06;;;;;;;5.60;4.10;;;;;23.20;100875.00;;;;2072703;28;20229;-65
2023/09/05 01:21:11;;;;;;;4.80;4.03;;;;;23.20;100928.00;;;;2083202;28;20811;-65
2023/09/05 01:22:35;;;;;;;4.80;4.13;;;;;23.20;100925.00;;;;2061549;28;20254;-65
2023/09/05 01:23:42;;;;;;;6.63;4.40;;;;;23.20;100936.00;;;;2077928;28;20227;-65
2023/09/05 01:24:47;;;;;;;4.50;4.10;;;;;23.10;100945.00;;;;2070587;28;20293;-65
2023/09/05 01:25:47;;;;;;;4.30;3.80;;;;;23.10;100939.00;;;;2081177;28;20216;-65
2023/09/05 01:26:48;;;;;;;9.50;4.03;;;;;23.20;100940.00;;;;2070553;28;20796;-65
2023/09/05 01:27:48;;;;;;;4.00;3.60;;;;;23.20;100930.00;;;;2077784;28;20210;-65
2023/09/05 01:28:49;;;;;;;4.90;4.37;;;;;23.10;100933.00;;;;2073611;28;20453;-65
2023/09/05 01:29:50;;;;;;;4.13;3.72;;;;;23.10;100927.00;;;;2069348;28;20213;-65
2023/09/05 01:30:50;;;;;;;5.17;3.67;;;;;23.10;100943.00;;;;2080064;28;20236;-65
2023/09/05 01:31:50;;;;;;;4.00;3.60;;;;;23.10;100933.00;;;;2068884;28;20274;-65
2023/09/05 01:32:51;;;;;;;4.60;3.60;;;;;23.10;100942.00;;;;2064772;28;20711;-65
2023/09/05 01:33:51;;;;;;;4.10;3.40;;;;;23.20;100937.00;;;;2066065;28;20703;-65
2023/09/05 01:34:52;;;;;;;4.77;3.63;;;;;23.10;100933.00;;;;2082432;28;20764;-65
2023/09/05 01:35:52;;;;;;;3.97;3.57;;;;;23.10;100932.00;;;;2087325;28;20229;-65
2023/09/05 01:36:52;;;;;;;4.03;3.63;;;;;23.10;100935.00;;;;2078716;28;20217;-65
2023/09/05 01:37:53;;;;;;;5.50;4.40;;;;;23.10;100924.00;;;;2085529;28;20220;-65
2023/09/05 01:38:53;;;;;;;5.03;4.03;;;;;23.10;100936.00;;;;2089835;28;20666;-65
2023/09/05 01:39:53;;;;;;;4.13;3.23;;;;;23.10;100940.00;;;;2080111;28;20216;-65
2023/09/05 01:40:54;;;;;;;4.50;3.63;;;;;23.10;100929.00;;;;2083963;28;20263;-65
2023/09/05 01:41:54;;;;;;;3.93;3.53;;;;;23.10;100924.00;;;;2079996;28;20216;-65
2023/09/05 01:42:55;;;;;;;3.83;3.53;;;;;23.10;100926.00;;;;2094308;28;20212;-65
2023/09/05 01:43:55;;;;;;;4.37;3.97;;;;;23.10;100929.00;;;;2089056;28;20212;-65
2023/09/05 01:44:55;;;;;;;3.60;3.30;;;;;23.10;100929.00;;;;2094577;28;20573;-65
2023/09/05 01:45:56;;;;;;;3.90;3.50;;;;;23.10;100930.00;;;;2087512;28;20634;-65
2023/09/05 01:46:56;;;;;;;4.50;3.67;;;;;23.10;100925.00;;;;2080141;28;20868;-65
2023/09/05 01:47:56;;;;;;;3.93;3.53;;;;;23.10;100927.00;;;;2091172;28;20217;-65
2023/09/05 01:48:57;;;;;;;5.50;3.90;;;;;23.10;100836.00;;;;2088922;28;20290;-65
2023/09/05 01:49:57;;;;;;;4.70;3.50;;;;;23.10;100925.00;;;;2091603;28;20223;-65
2023/09/05 01:50:57;;;;;;;3.60;3.13;;;;;23.10;100933.00;;;;2084647;28;20212;-65
2023/09/05 01:51:58;;;;;;;3.20;2.90;;;;;23.10;100927.00;;;;2080616;28;20407;-65
2023/09/05 01:52:58;;;;;;;4.43;3.93;;;;;23.10;100929.00;;;;2090858;28;20227;-65
2023/09/05 01:53:58;;;;;;;3.30;3.00;;;;;23.10;100924.00;;;;2087068;28;20196;-65
2023/09/05 01:54:59;;;;;;;4.00;3.60;;;;;23.10;100927.00;;;;2087776;28;20211;-65
2023/09/05 01:55:59;;;;;;;4.07;3.03;;;;;23.10;100921.00;;;;2089246;28;20266;-65
2023/09/05 01:56:59;;;;;;;7.07;3.37;;;;;23.10;100921.00;;;;2083987;28;20209;-65
2023/09/05 01:58:00;;;;;;;4.00;3.60;;;;;23.10;100925.00;;;;2086501;28;20216;-65
2023/09/05 01:59:00;;;;;;;3.33;3.03;;;;;23.10;100927.00;;;;2085033;28;20281;-65
2023/09/05 02:00:00;;;;;;;3.90;3.50;;;;;23.10;100930.00;;;;2089823;28;20216;-65
2023/09/05 02:01:04;;;;;;;4.47;3.13;;;;;22.80;100903.00;;;;2085882;28;20205;-65
2023/09/05 02:02:04;;;;;;;3.90;3.20;;;;;23.10;100936.00;;;;2068978;28;20863;-66
2023/09/05 02:03:05;;;;;;;4.03;3.10;;;;;23.10;100927.00;;;;2080921;28;20240;-66
2023/09/05 02:04:05;;;;;;;3.43;3.13;;;;;23.10;100925.00;;;;2091301;28;20200;-66
2023/09/05 02:05:06;;;;;;;3.27;2.97;;;;;23.10;100920.00;;;;2093501;28;20216;-66
2023/09/05 02:06:07;;;;;;;3.75;3.05;;;;;23.10;100929.00;;;;2091097;28;20212;-66
2023/09/05 02:07:08;;;;;;;4.30;3.63;;;;;23.10;100875.00;;;;2078196;28;20259;-66
2023/09/05 02:08:09;;;;;;;3.78;3.25;;;;;23.10;100930.00;;;;2085153;28;20193;-66
2023/09/05 02:09:09;;;;;;;3.63;3.33;;;;;23.10;100927.00;;;;2088598;28;20817;-66
2023/09/05 02:10:10;;;;;;;3.43;3.03;;;;;23.10;100923.00;;;;2089994;28;20204;-66
2023/09/05 02:11:10;;;;;;;3.80;2.90;;;;;23.10;100923.00;;;;2090673;28;20741;-66
2023/09/05 02:12:11;;;;;;;3.60;2.80;;;;;23.10;100930.00;;;;2081238;28;20212;-66
2023/09/05 02:13:12;;;;;;;3.67;3.00;;;;;23.10;100921.00;;;;2087512;28;20241;-66
2023/09/05 02:14:13;;;;;;;3.30;3.00;;;;;23.00;100915.00;;;;2093456;28;20626;-66
2023/09/05 02:15:13;;;;;;;5.43;3.40;;;;;22.90;100918.00;;;;2084287;28;20218;-66
2023/09/05 02:16:18;;;;;;;3.40;3.10;;;;;23.00;100917.00;;;;2089448;28;20216;-66
2023/09/05 02:17:20;;;;;;;3.67;2.90;;;;;23.00;100924.00;;;;2081500;28;20235;-66
2023/09/05 02:18:20;;;;;;;3.28;2.97;;;;;23.00;100914.00;;;;2090289;28;20208;-66
2023/09/05 02:19:23;;;;;;;3.53;3.00;;;;;23.00;100909.00;;;;2082249;28;20214;-66
2023/09/05 02:20:23;;;;;;;3.17;2.88;;;;;23.10;100912.00;;;;2083109;28;20300;-66
2023/09/05 02:21:24;;;;;;;4.23;3.00;;;;;23.10;100920.00;;;;2090848;28;20208;-66
2023/09/05 02:22:24;;;;;;;3.40;3.10;;;;;23.10;100909.00;;;;2070994;28;20213;-66
2023/09/05 02:23:24;;;;;;;3.10;2.77;;;;;23.00;100917.00;;;;2081773;28;20205;-66
2023/09/05 02:24:26;;;;;;;4.40;3.37;;;;;23.00;100917.00;;;;2077572;28;20224;-66
2023/09/05 02:25:26;;;;;;;5.15;3.35;;;;;23.00;100920.00;;;;2076362;28;20235;-66
2023/09/05 02:26:27;;;;;;;3.40;2.73;;;;;23.00;100916.00;;;;2082810;28;20224;-66
2023/09/05 02:27:27;;;;;;;3.87;2.70;;;;;23.00;100920.00;;;;2075390;28;20229;-66
2023/09/05 02:28:28;;;;;;;3.87;2.97;;;;;23.00;100917.00;;;;2079989;28;20217;-66
2023/09/05 02:29:28;;;;;;;3.87;2.80;;;;;23.00;100917.00;;;;2084016;28;20271;-66
2023/09/05 02:30:29;;;;;;;2.90;2.40;;;;;23.00;100916.00;;;;2089459;28;20223;-66
2023/09/05 02:31:29;;;;;;;2.90;2.50;;;;;23.00;100917.00;;;;2092643;28;20245;-66
2023/09/05 02:32:30;;;;;;;3.33;2.93;;;;;23.00;100923.00;;;;2081257;28;20220;-66
2023/09/05 02:33:33;;;;;;;3.33;3.03;;;;;23.00;100914.00;;;;2087981;28;20280;-66
2023/09/05 02:34:34;;;;;;;5.13;3.35;;;;;23.00;100928.00;;;;2087455;28;20887;-66
2023/09/05 02:35:34;;;;;;;5.07;3.10;;;;;23.00;100928.00;;;;2079693;28;20209;-66
2023/09/05 02:36:35;;;;;;;3.57;3.20;;;;;23.00;100931.00;;;;2078497;28;20212;-66
2023/09/05 02:37:36;;;;;;;2.70;2.50;;;;;23.00;100928.00;;;;2079954;28;20212;-66
2023/09/05 02:38:37;;;;;;;3.25;2.75;;;;;23.00;100932.00;;;;2089077;28;20685;-66
2023/09/05 02:39:37;;;;;;;3.30;2.77;;;;;23.00;100935.00;;;;2092704;28;20219;-66
2023/09/05 02:40:42;;;;;;;3.17;2.87;;;;;23.00;100941.00;;;;2074678;28;20228;-66
2023/09/05 02:41:43;;;;;;;2.80;2.50;;;;;23.00;100934.00;;;;2062579;28;20766;-66
2023/09/05 02:42:43;;;;;;;3.60;2.50;;;;;23.00;100941.00;;;;2089424;28;20225;-66
2023/09/05 02:43:46;;;;;;;3.30;2.50;;;;;23.00;100931.00;;;;2087910;28;20227;-66
2023/09/05 02:44:50;;;;;;;3.25;2.92;;;;;23.00;100948.00;;;;2091249;28;20213;-66
2023/09/05 02:45:51;;;;;;;3.28;2.55;;;;;23.00;100936.00;;;;2094857;28;20680;-66
2023/09/05 02:46:52;;;;;;;3.05;2.75;;;;;23.00;100941.00;;;;2064146;28;20897;-66
2023/09/05 02:47:52;;;;;;;2.97;2.67;;;;;23.00;100945.00;;;;2080758;28;20217;-66
2023/09/05 02:48:52;;;;;;;3.60;2.73;;;;;23.00;100948.00;;;;2085008;28;20213;-66
2023/09/05 02:49:53;;;;;;;3.27;2.57;;;;;23.00;100934.00;;;;2093585;28;20213;-66
2023/09/05 02:51:03;;;;;;;3.70;3.07;;;;;23.00;100941.00;;;;2088537;28;20653;-66
2023/09/05 02:52:04;;;;;;;2.78;2.53;;;;;23.00;100944.00;;;;2067039;28;21168;-66
2023/09/05 02:53:04;;;;;;;3.13;2.83;;;;;23.00;100944.00;;;;2076972;28;20211;-66
2023/09/05 02:54:05;;;;;;;5.80;2.87;;;;;23.00;100948.00;;;;2087858;28;20240;-66
2023/09/05 02:55:05;;;;;;;3.33;3.03;;;;;23.00;100946.00;;;;2083602;28;20205;-66
2023/09/05 02:56:06;;;;;;;4.70;2.80;;;;;23.00;100945.00;;;;2091896;28;20294;-66
2023/09/05 02:57:06;;;;;;;3.33;2.47;;;;;23.00;100947.00;;;;2081601;28;20205;-66
2023/09/05 02:58:06;;;;;;;6.20;2.73;;;;;23.00;100913.00;;;;2091203;28;20204;-66
2023/09/05 02:59:07;;;;;;;2.40;2.13;;;;;23.00;100952.00;;;;2091849;28;20208;-66
2023/09/05 03:00:08;;;;;;;3.87;2.40;;;;;23.00;100942.00;;;;2090013;28;20236;-66
2023/09/05 03:01:11;;;;;;;2.33;2.03;;;;;23.00;100940.00;;;;2091926;28;20221;-66
2023/09/05 03:02:12;;;;;;;2.63;2.42;;;;;23.00;100948.00;;;;2082171;28;20645;-66
2023/09/05 03:03:12;;;;;;;2.60;2.40;;;;;23.00;100948.00;;;;2088190;28;20258;-66
2023/09/05 03:04:14;;;;;;;2.40;2.20;;;;;23.00;100943.00;;;;2086928;28;20209;-66
2023/09/05 03:05:14;;;;;;;2.28;2.08;;;;;23.00;100951.00;;;;2090185;28;20237;-66
2023/09/05 03:06:15;;;;;;;2.87;2.57;;;;;23.00;100951.00;;;;2090168;28;20584;-66
2023/09/05 03:07:16;;;;;;;2.50;2.30;;;;;23.00;100950.00;;;;2079813;28;20403;-66
2023/09/05 03:08:16;;;;;;;3.50;2.60;;;;;23.00;100948.00;;;;2094586;28;20512;-66
2023/09/05 03:09:16;;;;;;;3.87;3.10;;;;;23.00;100951.00;;;;2091476;28;20255;-66
2023/09/05 03:10:17;;;;;;;2.60;2.33;;;;;23.00;100912.00;;;;2089699;28;20209;-66
2023/09/05 03:11:17;;;;;;;2.70;2.50;;;;;23.00;100943.00;;;;2087826;28;20209;-66
2023/09/05 03:12:17;;;;;;;2.43;2.20;;;;;23.00;100864.00;;;;2083094;28;20216;-66
2023/09/05 03:13:18;;;;;;;2.43;2.23;;;;;23.00;100942.00;;;;2094874;28;20217;-66
2023/09/05 03:14:19;;;;;;;2.60;2.40;;;;;23.00;100944.00;;;;2086994;28;20217;-66
2023/09/05 03:15:20;;;;;;;3.07;2.77;;;;;23.00;100944.00;;;;2087684;28;20447;-66
2023/09/05 03:16:23;;;;;;;3.42;2.60;;;;;23.00;100939.00;;;;2091546;28;20242;-66
2023/09/05 03:17:23;;;;;;;3.35;2.35;;;;;23.00;100942.00;;;;2078650;28;20679;-66
2023/09/05 03:18:27;;;;;;;2.43;2.23;;;;;23.00;100941.00;;;;2091643;28;20220;-66
2023/09/05 03:19:27;;;;;;;2.50;2.28;;;;;23.00;100943.00;;;;2087467;28;20217;-66
2023/09/05 03:20:27;;;;;;;3.70;3.17;;;;;23.00;100936.00;;;;2087866;28;20216;-66
2023/09/05 03:21:28;;;;;;;4.20;2.70;;;;;23.00;100948.00;;;;2073576;28;20264;-65
2023/09/05 03:22:28;;;;;;;2.40;2.20;;;;;23.00;100940.00;;;;2078277;28;20219;-65
2023/09/05 03:23:28;;;;;;;2.97;2.57;;;;;23.00;100938.00;;;;2096019;28;20215;-65
2023/09/05 03:24:29;;;;;;;3.50;2.50;;;;;23.00;100942.00;;;;2093343;28;20241;-65
2023/09/05 03:25:29;;;;;;;2.83;2.47;;;;;23.00;100952.00;;;;2095876;28;20262;-65
2023/09/05 03:26:29;;;;;;;2.53;2.33;;;;;23.00;100949.00;;;;2096691;28;20209;-66
2023/09/05 03:27:30;;;;;;;2.87;2.47;;;;;23.00;100945.00;;;;2086314;28;20223;-66
2023/09/05 03:28:43;;;;;;;3.00;2.33;;;;;23.00;100944.00;;;;2089995;28;20211;-66
2023/09/05 03:29:43;;;;;;;2.35;2.15;;;;;23.00;100947.00;;;;2084525;28;20206;-66
2023/09/05 03:30:43;;;;;;;3.23;2.80;;;;;23.00;100896.00;;;;2086984;28;20197;-66
2023/09/05 03:31:44;;;;;;;3.00;2.40;;;;;23.00;100944.00;;;;2069401;28;20205;-66
2023/09/05 03:32:44;;;;;;;2.60;2.40;;;;;23.00;100951.00;;;;2071134;28;20214;-66
2023/09/05 03:33:44;;;;;;;2.47;2.27;;;;;22.90;100945.00;;;;2087872;28;20209;-66
2023/09/05 03:34:48;;;;;;;3.50;2.50;;;;;23.00;100952.00;;;;2087559;28;20216;-66
2023/09/05 03:35:49;;;;;;;2.40;1.98;;;;;22.90;100946.00;;;;2088081;28;20287;-66
2023/09/05 03:36:49;;;;;;;2.90;2.60;;;;;23.00;100939.00;;;;2086586;28;20241;-66
2023/09/05 03:37:49;;;;;;;2.20;2.00;;;;;22.90;100946.00;;;;2078368;28;20226;-66
2023/09/05 03:38:50;;;;;;;2.90;2.30;;;;;23.00;100929.00;;;;2066654;28;20221;-66
2023/09/05 03:39:50;;;;;;;3.13;2.60;;;;;22.90;100945.00;;;;2095781;28;20219;-66
2023/09/05 03:40:51;;;;;;;2.60;2.40;;;;;22.90;100939.00;;;;2096775;28;20242;-66
2023/09/05 03:41:51;;;;;;;2.57;2.30;;;;;22.90;100937.00;;;;2086163;28;20262;-66
2023/09/05 03:42:51;;;;;;;2.80;2.50;;;;;22.90;100945.00;;;;2077056;28;20217;-66
2023/09/05 03:43:51;;;;;;;2.27;2.00;;;;;22.90;100938.00;;;;2081631;28;20224;-66
2023/09/05 03:44:52;;;;;;;2.20;1.80;;;;;22.90;100940.00;;;;2094840;28;20235;-66
2023/09/05 03:45:53;;;;;;;2.30;2.10;;;;;22.90;100936.00;;;;2083017;28;20230;-66
2023/09/05 03:46:53;;;;;;;2.60;2.30;;;;;22.90;100939.00;;;;2083821;28;20780;-66
2023/09/05 03:47:53;;;;;;;2.63;2.33;;;;;22.90;100931.00;;;;2089406;28;20224;-66
2023/09/05 03:48:55;;;;;;;2.47;2.27;;;;;22.90;100941.00;;;;2095223;28;20244;-66
2023/09/05 03:49:55;;;;;;;2.60;2.40;;;;;22.90;100925.00;;;;2095708;28;20224;-66
2023/09/05 03:50:56;;;;;;;3.33;2.60;;;;;22.90;100928.00;;;;2093851;28;20223;-65
2023/09/05 03:51:57;;;;;;;2.30;2.10;;;;;22.90;100938.00;;;;2085198;28;20274;-65
2023/09/05 03:52:57;;;;;;;2.72;2.50;;;;;22.90;100940.00;;;;2095514;28;20223;-65
2023/09/05 03:53:58;;;;;;;4.03;2.37;;;;;22.90;100949.00;;;;2088222;28;20247;-65
2023/09/05 03:54:59;;;;;;;2.40;2.20;;;;;22.90;100936.00;;;;2088596;28;20220;-65
2023/09/05 03:55:59;;;;;;;2.60;2.40;;;;;22.90;100937.00;;;;2091281;28;20246;-65
2023/09/05 03:56:59;;;;;;;2.80;2.50;;;;;22.90;100944.00;;;;2077683;28;20322;-65
2023/09/05 03:58:02;;;;;;;2.43;2.23;;;;;22.90;100933.00;;;;2080317;28;20205;-65
2023/09/05 03:59:02;;;;;;;3.33;2.20;;;;;22.90;100938.00;;;;2090331;28;20282;-65
2023/09/05 04:00:03;;;;;;;2.80;2.50;;;;;22.90;100942.00;;;;2092395;28;20244;-65
2023/09/05 04:01:04;;;;;;;2.45;2.15;;;;;22.90;100933.00;;;;2091289;28;20213;-65
2023/09/05 04:02:04;;;;;;;2.70;2.50;;;;;22.90;100947.00;;;;2069917;28;20312;-65
2023/09/05 04:03:04;;;;;;;2.07;1.77;;;;;22.90;100934.00;;;;2082877;28;20221;-65
2023/09/05 04:04:07;;;;;;;4.63;2.47;;;;;22.90;100938.00;;;;2084957;28;20599;-65
2023/09/05 04:05:08;;;;;;;2.42;2.22;;;;;22.90;100933.00;;;;2069897;28;21071;-65
2023/09/05 04:06:08;;;;;;;2.20;2.00;;;;;22.90;100938.00;;;;2071704;28;20276;-65
2023/09/05 04:07:09;;;;;;;2.40;2.13;;;;;22.90;100938.00;;;;2070118;28;20479;-65
2023/09/05 04:08:09;;;;;;;2.83;2.40;;;;;22.90;100937.00;;;;2086029;28;20212;-65
2023/09/05 04:09:10;;;;;;;3.13;2.00;;;;;22.90;100938.00;;;;2087907;28;20292;-65
2023/09/05 04:10:10;;;;;;;2.70;2.30;;;;;22.90;100940.00;;;;2089040;28;20648;-65
2023/09/05 04:11:10;;;;;;;2.53;2.30;;;;;22.90;100944.00;;;;2093226;28;20558;-65
2023/09/05 04:12:11;;;;;;;4.90;2.07;;;;;22.90;100885.00;;;;2077243;28;20628;-65
2023/09/05 04:13:11;;;;;;;2.30;2.10;;;;;22.90;100939.00;;;;2093441;28;20718;-65
2023/09/05 04:14:11;;;;;;;3.10;2.17;;;;;22.90;100941.00;;;;2093063;28;20909;-65
2023/09/05 04:15:19;;;;;;;2.67;2.47;;;;;22.90;100940.00;;;;2085803;28;20219;-65
2023/09/05 04:16:19;;;;;;;3.20;2.40;;;;;22.90;100938.00;;;;2092076;28;20623;-65
2023/09/05 04:17:20;;;;;;;2.50;2.30;;;;;22.90;100937.00;;;;2085035;28;20223;-65
2023/09/05 04:18:20;;;;;;;2.60;2.30;;;;;22.90;100938.00;;;;2089479;28;20711;-65
2023/09/05 04:19:20;;;;;;;3.63;2.40;;;;;22.90;100940.00;;;;2092525;28;20564;-65
2023/09/05 04:20:21;;;;;;;2.37;1.90;;;;;22.90;100936.00;;;;2087565;28;20691;-65
2023/09/05 04:21:21;;;;;;;3.13;2.20;;;;;22.90;100934.00;;;;2086964;28;20749;-65
2023/09/05 04:22:23;;;;;;;2.47;2.27;;;;;22.90;100933.00;;;;2081662;28;20628;-65
2023/09/05 04:23:24;;;;;;;2.92;2.03;;;;;22.90;100934.00;;;;2095314;28;20581;-65
2023/09/05 04:24:24;;;;;;;2.40;2.20;;;;;22.90;100937.00;;;;2088827;28;20219;-65
2023/09/05 04:25:27;;;;;;;2.90;2.13;;;;;22.90;100931.00;;;;2091201;28;20509;-65
2023/09/05 04:26:29;;;;;;;3.45;2.10;;;;;22.90;100941.00;;;;2083528;28;20220;-65
2023/09/05 04:27:30;;;;;;;2.20;2.00;;;;;22.90;100936.00;;;;2062869;28;20222;-65
2023/09/05 04:28:30;;;;;;;2.80;2.20;;;;;22.90;100939.00;;;;2082207;28;20299;-65
2023/09/05 04:29:31;;;;;;;3.13;2.40;;;;;22.90;100942.00;;;;2089489;28;20217;-65
2023/09/05 04:30:32;;;;;;;2.43;1.93;;;;;22.90;100935.00;;;;2095774;28;20212;-65
2023/09/05 04:31:33;;;;;;;2.90;2.35;;;;;22.90;100923.00;;;;2082717;28;20236;-65
2023/09/05 04:32:34;;;;;;;3.53;2.30;;;;;22.90;100939.00;;;;2079848;28;20715;-65
2023/09/05 04:33:39;;;;;;;2.50;2.10;;;;;22.90;100941.00;;;;2085917;28;20217;-65
2023/09/05 04:34:39;;;;;;;2.65;2.45;;;;;22.90;100938.00;;;;2095526;28;20212;-65
2023/09/05 04:35:40;;;;;;;2.30;2.10;;;;;22.90;100940.00;;;;2096308;28;20223;-65
2023/09/05 04:36:40;;;;;;;3.23;2.50;;;;;22.90;100934.00;;;;2086913;28;20216;-65
2023/09/05 04:37:40;;;;;;;3.17;2.30;;;;;22.90;100935.00;;;;2093359;28;20265;-65
2023/09/05 04:38:43;;;;;;;2.33;2.13;;;;;22.90;100937.00;;;;2091441;28;20216;-65
2023/09/05 04:39:44;;;;;;;2.83;2.47;;;;;22.90;100940.00;;;;2088742;28;20657;-65
2023/09/05 04:40:44;;;;;;;2.50;2.10;;;;;22.90;100934.00;;;;2095856;28;20220;-65
2023/09/05 04:41:44;;;;;;;2.57;2.37;;;;;22.90;100943.00;;;;2076760;28;20266;-65
2023/09/05 04:42:45;;;;;;;2.13;1.93;;;;;22.90;100937.00;;;;2087527;28;20217;-65
2023/09/05 04:43:45;;;;;;;4.33;2.30;;;;;22.90;100941.00;;;;2094997;28;20227;-65
2023/09/05 04:44:46;;;;;;;3.90;2.37;;;;;22.90;100935.00;;;;2096325;28;20269;-65
2023/09/05 04:45:54;;;;;;;3.00;2.37;;;;;22.90;100940.00;;;;2091747;28;20752;-65
2023/09/05 04:47:26;;;;;;;2.42;2.22;;;;;22.90;100933.00;;;;2076974;28;20266;-65
2023/09/05 04:48:27;;;;;;;2.40;2.20;;;;;22.90;100948.00;;;;2093728;28;20546;-65
2023/09/05 04:49:27;;;;;;;3.23;2.10;;;;;22.80;100940.00;;;;2088148;28;20228;-65
2023/09/05 04:50:27;;;;;;;2.60;2.00;;;;;22.90;100938.00;;;;2082419;28;20310;-65
2023/09/05 04:51:27;;;;;;;2.30;2.10;;;;;22.90;100943.00;;;;2095419;28;20216;-65
2023/09/05 04:52:29;;;;;;;3.20;2.27;;;;;22.90;100950.00;;;;2074004;28;20221;-65
2023/09/05 04:53:32;;;;;;;2.17;1.98;;;;;22.80;100937.00;;;;2084112;28;20274;-65
2023/09/05 04:54:32;;;;;;;3.00;2.63;;;;;22.90;100941.00;;;;2095083;28;20289;-65
2023/09/05 04:55:32;;;;;;;3.23;2.03;;;;;22.90;100940.00;;;;2091725;28;20274;-65
2023/09/05 04:56:33;;;;;;;2.93;2.23;;;;;22.90;100934.00;;;;2095964;28;20248;-65
2023/09/05 04:57:33;;;;;;;2.67;2.30;;;;;22.90;100948.00;;;;2082786;28;20212;-65
2023/09/05 04:58:33;;;;;;;2.73;2.30;;;;;22.90;100947.00;;;;2092421;28;20229;-65
2023/09/05 04:59:34;;;;;;;3.27;2.30;;;;;22.90;100945.00;;;;2082344;28;20225;-65
2023/09/05 05:00:34;;;;;;;3.47;2.20;;;;;22.90;100948.00;;;;2086605;28;20273;-65
2023/09/05 05:01:34;;;;;;;2.90;2.47;;;;;22.90;100952.00;;;;2084709;28;20248;-65
2023/09/05 05:02:35;;;;;;;2.60;2.40;;;;;22.80;100950.00;;;;2078670;28;20226;-65
2023/09/05 05:03:35;;;;;;;2.70;2.23;;;;;22.90;100943.00;;;;2083084;28;20215;-65